createdAt,value
2019-01-05T00:02:15.905Z,4.97
2019-01-05T00:04:55.054Z,5.01
2019-01-05T00:07:28.101Z,5.04
2019-01-05T00:10:07.131Z,5.05
2019-01-05T00:12:42.856Z,5.04
2019-01-05T00:15:13.030Z,5.07
2019-01-05T00:17:55.655Z,5.15
2019-01-05T00:20:42.545Z,5.16
2019-01-05T00:23:22.253Z,5.17
2019-01-05T00:25:52.436Z,5.17
2019-01-05T00:28:39.622Z,5.22
2019-01-05T00:31:09.826Z,5.23
2019-01-05T00:33:59.555Z,5.25
2019-01-05T00:36:36.633Z,5.25
2019-01-05T00:39:11.297Z,5.26
2019-01-05T00:41:42.932Z,5.25
2019-01-05T00:44:13.151Z,5.24
2019-01-05T00:47:03.289Z,5.24
2019-01-05T00:49:50.969Z,5.26
2019-01-05T00:52:39.990Z,5.27
2019-01-05T00:55:28.833Z,5.26
2019-01-05T00:58:16.910Z,5.23
2019-01-05T01:00:47.244Z,5.17
2019-01-05T01:03:35.671Z,5.19
2019-01-05T01:06:21.943Z,5.23
2019-01-05T01:09:08.800Z,5.25
2019-01-05T01:11:41.945Z,5.26
2019-01-05T01:14:21.182Z,5.28
2019-01-05T01:17:07.808Z,5.31
2019-01-05T01:19:44.109Z,5.35
2019-01-05T01:22:14.500Z,5.35
2019-01-05T01:24:50.714Z,5.35
2019-01-05T01:27:30.474Z,5.38
2019-01-05T01:30:09.899Z,5.42
2019-01-05T01:32:45.784Z,5.46
2019-01-05T01:35:18.674Z,5.44
2019-01-05T01:38:17.552Z,5.49
2019-01-05T01:41:04.219Z,5.52
2019-01-05T01:43:34.371Z,5.51
2019-01-05T01:46:08.103Z,5.52
2019-01-05T01:48:38.639Z,5.52
2019-01-05T01:51:10.294Z,5.53
2019-01-05T01:53:58.722Z,5.57
2019-01-05T01:56:39.129Z,5.58
2019-01-05T01:59:14.942Z,5.60
2019-01-05T02:01:48.788Z,5.62
2019-01-05T02:04:19.403Z,5.63
2019-01-05T02:07:07.708Z,5.62
2019-01-05T02:09:39.698Z,5.61
2019-01-05T02:12:28.987Z,5.63
2019-01-05T02:15:13.767Z,5.58
2019-01-05T02:17:44.916Z,5.54
2019-01-05T02:20:36.066Z,5.54
2019-01-05T02:23:40.714Z,5.56
2019-01-05T02:26:22.742Z,5.58
2019-01-05T02:29:38.448Z,5.60
2019-01-05T02:32:36.619Z,5.64
2019-01-05T02:35:38.616Z,5.65
2019-01-05T02:38:20.544Z,5.66
2019-01-05T02:41:21.526Z,5.67
2019-01-05T02:44:15.904Z,5.68
2019-01-05T02:47:13.892Z,5.65
2019-01-05T02:50:09.313Z,5.69
2019-01-05T02:53:10.915Z,5.69
2019-01-05T02:56:06.408Z,5.70
2019-01-05T02:58:56.821Z,5.69
2019-01-05T03:01:50.678Z,5.64
2019-01-05T03:04:52.452Z,5.67
2019-01-05T03:07:49.262Z,5.68
2019-01-05T03:11:04.733Z,5.70
2019-01-05T03:14:06.823Z,5.71
2019-01-05T03:17:17.916Z,5.73
2019-01-05T03:19:59.973Z,5.75
2019-01-05T03:22:52.573Z,5.78
2019-01-05T03:25:46.584Z,5.82
2019-01-05T03:28:43.422Z,5.88
2019-01-05T03:31:55.828Z,5.88
2019-01-05T03:34:48.846Z,5.93
2019-01-05T03:37:53.613Z,5.90
2019-01-05T03:40:32.187Z,5.87
2019-01-05T03:43:31.127Z,5.85
2019-01-05T03:46:49.953Z,5.87
2019-01-05T03:49:40.850Z,5.89
2019-01-05T03:52:54.714Z,5.90
2019-01-05T03:55:54.257Z,5.86
2019-01-05T03:59:02.015Z,5.82
2019-01-05T04:02:06.537Z,5.83
2019-01-05T04:05:14.344Z,5.81
2019-01-05T04:08:19.138Z,5.81
2019-01-05T04:11:13.551Z,5.84
2019-01-05T04:14:01.354Z,5.87
2019-01-05T04:16:57.316Z,5.87
2019-01-05T04:20:16.171Z,5.86
2019-01-05T04:23:31.753Z,5.84
2019-01-05T04:26:22.304Z,5.84
2019-01-05T04:29:28.827Z,5.83
2019-01-05T04:32:18.026Z,5.83
2019-01-05T04:35:23.057Z,5.87
2019-01-05T04:38:28.750Z,5.90
2019-01-05T04:41:30.547Z,5.89
2019-01-05T04:44:24.030Z,5.88
2019-01-05T04:47:30.898Z,5.91
2019-01-05T04:50:06.868Z,5.94
2019-01-05T04:53:08.594Z,5.95
2019-01-05T04:56:08.766Z,5.95
2019-01-05T04:59:02.556Z,5.95
2019-01-05T05:01:47.654Z,5.97
2019-01-05T05:04:57.396Z,6.01
2019-01-05T05:07:49.853Z,6.03
2019-01-05T05:10:37.916Z,6.08
2019-01-05T05:13:46.619Z,6.07
2019-01-05T05:16:48.852Z,6.06
2019-01-05T05:19:33.911Z,6.08
2019-01-05T05:22:40.461Z,6.09
2019-01-05T05:25:48.428Z,6.13
2019-01-05T05:28:46.683Z,6.17
2019-01-05T05:31:56.091Z,6.20
2019-01-05T05:35:00.508Z,6.21
2019-01-05T05:38:08.132Z,6.25
2019-01-05T05:41:00.787Z,6.26
2019-01-05T05:44:15.758Z,6.28
2019-01-05T05:47:25.236Z,6.33
2019-01-05T05:50:24.029Z,6.34
2019-01-05T05:53:36.733Z,6.38
2019-01-05T05:56:27.776Z,6.42
2019-01-05T05:59:24.487Z,6.47
2019-01-05T06:02:03.345Z,6.49
2019-01-05T06:05:09.872Z,6.50
2019-01-05T06:08:13.332Z,6.54
2019-01-05T06:11:04.231Z,6.57
2019-01-05T06:14:06.004Z,6.57
2019-01-05T06:17:08.897Z,6.59
2019-01-05T06:20:00.046Z,6.63
2019-01-05T06:23:08.990Z,6.64
2019-01-05T06:26:10.640Z,6.67
2019-01-05T06:29:08.912Z,6.68
2019-01-05T06:32:04.490Z,6.72
2019-01-05T06:35:01.314Z,6.74
2019-01-05T06:37:52.406Z,6.75
2019-01-05T06:41:07.825Z,6.79
2019-01-05T06:43:49.765Z,6.79
2019-01-05T06:46:25.842Z,6.79
2019-01-05T06:49:28.736Z,6.79
2019-01-05T06:52:25.489Z,6.79
2019-01-05T06:55:19.968Z,6.80
2019-01-05T06:58:10.961Z,6.81
2019-01-05T07:01:12.361Z,6.82
2019-01-05T07:04:13.700Z,6.85
2019-01-05T07:07:01.630Z,6.85
2019-01-05T07:10:08.251Z,6.89
2019-01-05T07:13:18.649Z,6.90
2019-01-05T07:16:06.831Z,6.90
2019-01-05T07:18:59.072Z,6.86
2019-01-05T07:22:08.739Z,6.89
2019-01-05T07:25:08.602Z,6.88
2019-01-05T07:28:17.955Z,6.89
2019-01-05T07:31:06.194Z,6.87
2019-01-05T07:34:21.273Z,6.91
2019-01-05T07:37:18.845Z,6.88
2019-01-05T07:40:36.869Z,6.88
2019-01-05T07:43:34.323Z,6.88
2019-01-05T07:46:42.048Z,6.87
2019-01-05T07:49:59.739Z,6.86
2019-01-05T07:52:53.175Z,6.90
2019-01-05T07:56:07.387Z,6.96
2019-01-05T07:59:15.061Z,6.97
2019-01-05T08:02:10.945Z,6.95
2019-01-05T08:05:09.252Z,6.98
2019-01-05T08:07:54.313Z,7.01
2019-01-05T08:11:14.367Z,7.03
2019-01-05T08:14:02.262Z,7.05
2019-01-05T08:16:54.593Z,7.05
2019-01-05T08:19:44.359Z,7.02
2019-01-05T08:23:02.752Z,6.98
2019-01-05T08:26:07.637Z,6.96
2019-01-05T08:29:01.906Z,6.98
2019-01-05T08:31:37.745Z,6.99
2019-01-05T08:35:01.957Z,7.00
2019-01-05T08:38:27.915Z,7.02
2019-01-05T08:41:34.368Z,7.00
2019-01-05T08:44:30.230Z,6.99
2019-01-05T08:47:21.222Z,6.96
2019-01-05T08:50:13.781Z,6.93
2019-01-05T08:53:15.344Z,6.92
2019-01-05T08:56:07.976Z,6.89
2019-01-05T08:58:46.338Z,6.85
2019-01-05T09:01:46.472Z,6.83
2019-01-05T09:04:40.390Z,6.90
2019-01-05T09:07:34.564Z,6.94
2019-01-05T09:10:37.577Z,6.96
2019-01-05T09:13:19.534Z,7.01
2019-01-05T09:16:41.222Z,7.02
2019-01-05T09:19:35.614Z,7.01
2019-01-05T09:22:36.206Z,6.94
2019-01-05T09:25:50.256Z,6.90
2019-01-05T09:28:59.069Z,6.97
2019-01-05T09:31:40.843Z,6.95
2019-01-05T09:34:25.880Z,6.94
2019-01-05T09:37:36.522Z,6.91
2019-01-05T09:40:21.321Z,6.93
2019-01-05T09:43:25.045Z,6.97
2019-01-05T09:46:12.356Z,6.94
2019-01-05T09:49:15.869Z,6.96
2019-01-05T09:52:17.523Z,7.02
2019-01-05T09:55:15.936Z,7.02
2019-01-05T09:58:20.789Z,7.07
2019-01-05T10:01:14.591Z,7.08
2019-01-05T10:04:02.931Z,7.08
2019-01-05T10:06:38.786Z,7.07
2019-01-05T10:09:28.316Z,7.08
2019-01-05T10:12:13.175Z,7.10
2019-01-05T10:14:58.303Z,7.15
2019-01-05T10:17:53.485Z,7.21
2019-01-05T10:20:55.166Z,7.25
2019-01-05T10:23:56.752Z,7.30
2019-01-05T10:26:41.856Z,7.31
2019-01-05T10:29:39.627Z,7.31
2019-01-05T10:32:35.035Z,7.27
2019-01-05T10:35:31.905Z,7.24
2019-01-05T10:38:44.656Z,7.25
2019-01-05T10:41:52.558Z,7.30
2019-01-05T10:44:31.491Z,7.26
2019-01-05T10:47:31.505Z,7.27
2019-01-05T10:50:31.332Z,7.27
2019-01-05T10:53:49.336Z,7.27
2019-01-05T10:56:30.828Z,7.28
2019-01-05T10:59:32.228Z,7.26
2019-01-05T11:02:33.455Z,7.26
2019-01-05T11:05:35.170Z,7.25
2019-01-05T11:08:36.941Z,7.21
2019-01-05T11:11:34.401Z,7.16
2019-01-05T11:14:28.167Z,7.18
2019-01-05T11:17:22.267Z,7.18
2019-01-05T11:20:36.595Z,7.21
2019-01-05T11:23:27.463Z,7.24
2019-01-05T11:26:26.658Z,7.26
2019-01-05T11:29:34.719Z,7.22
2019-01-05T11:32:22.607Z,7.26
2019-01-05T11:35:21.444Z,7.23
2019-01-05T11:38:26.066Z,7.23
2019-01-05T11:41:17.122Z,7.26
2019-01-05T11:44:22.188Z,7.26
2019-01-05T11:47:17.897Z,7.32
2019-01-05T11:50:05.842Z,7.38
2019-01-05T11:53:07.251Z,7.44
2019-01-05T11:56:02.658Z,7.45
2019-01-05T11:59:16.539Z,7.46
2019-01-05T12:02:19.617Z,7.43
2019-01-05T12:05:11.905Z,7.34
2019-01-05T12:08:33.452Z,7.28
2019-01-05T12:11:43.058Z,7.21
2019-01-05T12:14:37.254Z,7.23
2019-01-05T12:17:37.551Z,7.20
2019-01-05T12:20:42.440Z,7.22
2019-01-05T12:23:27.437Z,7.22
2019-01-05T12:26:22.990Z,7.27
2019-01-05T12:29:13.949Z,7.26
2019-01-05T12:32:08.022Z,7.28
2019-01-05T12:35:15.895Z,7.26
2019-01-05T12:38:09.989Z,7.29
2019-01-05T12:41:14.481Z,7.30
2019-01-05T12:43:59.741Z,7.29
2019-01-05T12:46:52.151Z,7.33
2019-01-05T12:49:40.196Z,7.34
2019-01-05T12:52:49.622Z,7.34
2019-01-05T12:55:40.877Z,7.31
2019-01-05T12:58:42.217Z,7.29
2019-01-05T13:01:30.692Z,7.27
2019-01-05T13:04:32.651Z,7.29
2019-01-05T13:07:24.869Z,7.35
2019-01-05T13:10:20.479Z,7.39
2019-01-05T13:13:11.516Z,7.44
2019-01-05T13:16:08.574Z,7.45
2019-01-05T13:18:58.054Z,7.46
2019-01-05T13:21:56.298Z,7.49
2019-01-05T13:24:57.915Z,7.48
2019-01-05T13:27:45.865Z,7.40
2019-01-05T13:30:46.120Z,7.43
2019-01-05T13:33:51.019Z,7.47
2019-01-05T13:37:15.676Z,7.61
2019-01-05T13:40:13.037Z,7.60
2019-01-05T13:43:14.108Z,7.60
2019-01-05T13:46:15.888Z,7.62
2019-01-05T13:49:28.068Z,7.56
2019-01-05T13:52:18.664Z,7.61
2019-01-05T13:54:51.772Z,7.50
2019-01-05T13:57:24.312Z,7.42
2019-01-05T13:59:54.404Z,7.40
2019-01-05T14:02:40.757Z,7.48
2019-01-05T14:05:16.300Z,7.52
2019-01-05T14:08:02.609Z,7.56
2019-01-05T14:10:57.791Z,7.58
2019-01-05T14:13:44.233Z,7.60
2019-01-05T14:16:14.299Z,7.66
2019-01-05T14:18:47.386Z,7.71
2019-01-05T14:21:17.456Z,7.65
2019-01-05T14:24:04.206Z,7.64
2019-01-05T14:26:36.768Z,7.59
2019-01-05T14:29:13.107Z,7.56
2019-01-05T14:31:58.231Z,7.58
2019-01-05T14:34:34.247Z,7.55
2019-01-05T14:37:04.503Z,7.55
2019-01-05T14:39:51.068Z,7.52
2019-01-05T14:42:37.330Z,7.54
2019-01-05T14:45:18.395Z,7.51
2019-01-05T14:48:03.698Z,7.50
2019-01-05T14:50:33.813Z,7.49
2019-01-05T14:53:09.498Z,7.48
2019-01-05T14:55:39.534Z,7.45
2019-01-05T14:58:18.922Z,7.42
2019-01-05T15:00:51.901Z,7.42
2019-01-05T15:03:38.440Z,7.47
2019-01-05T15:06:20.222Z,7.54
2019-01-05T15:09:06.325Z,7.48
2019-01-05T15:11:42.438Z,7.51
2019-01-05T15:14:18.041Z,7.54
2019-01-05T15:17:04.051Z,7.50
2019-01-05T15:19:39.989Z,7.46
2019-01-05T15:22:12.789Z,7.39
2019-01-05T15:24:45.619Z,7.35
2019-01-05T15:27:31.887Z,7.41
2019-01-05T15:30:18.279Z,7.39
2019-01-05T15:32:48.474Z,7.41
2019-01-05T15:35:21.297Z,7.36
2019-01-05T15:37:51.467Z,7.28
2019-01-05T15:40:33.519Z,7.31
2019-01-05T15:43:19.758Z,7.30
2019-01-05T15:45:52.260Z,7.27
2019-01-05T15:48:37.290Z,7.28
2019-01-05T15:51:16.082Z,7.30
2019-01-05T15:53:52.418Z,7.26
2019-01-05T15:56:38.919Z,7.18
2019-01-05T15:59:21.054Z,7.18
2019-01-05T16:01:51.157Z,7.25
2019-01-05T16:04:36.346Z,7.20
2019-01-05T16:07:06.426Z,7.18
2019-01-05T16:09:36.593Z,7.21
2019-01-05T16:12:09.086Z,7.24
2019-01-05T16:14:41.589Z,7.23
2019-01-05T16:17:11.647Z,7.24
2019-01-05T16:19:41.785Z,7.28
2019-01-05T16:22:28.656Z,7.24
2019-01-05T16:24:58.729Z,7.23
2019-01-05T16:27:31.714Z,7.28
2019-01-05T16:30:04.264Z,7.32
2019-01-05T16:32:34.316Z,7.31
2019-01-05T16:35:07.117Z,7.32
2019-01-05T16:37:53.606Z,7.36
2019-01-05T16:40:40.338Z,7.40
2019-01-05T16:43:16.416Z,7.32
2019-01-05T16:45:49.359Z,7.28
2019-01-05T16:48:37.771Z,7.28
2019-01-05T16:51:22.940Z,7.28
2019-01-05T16:53:59.165Z,7.27
2019-01-05T16:56:45.609Z,7.28
2019-01-05T16:59:30.947Z,7.29
2019-01-05T17:02:01.076Z,7.25
2019-01-05T17:04:36.945Z,7.20
2019-01-05T17:07:23.358Z,7.18
2019-01-05T17:09:53.486Z,7.18
2019-01-05T17:12:40.104Z,7.17
2019-01-05T17:15:10.224Z,7.16
2019-01-05T17:17:46.324Z,7.12
2019-01-05T17:20:28.032Z,7.14
2019-01-05T17:23:14.015Z,7.13
2019-01-05T17:26:02.386Z,7.17
2019-01-05T17:28:47.592Z,7.16
2019-01-05T17:31:33.663Z,7.10
2019-01-05T17:34:18.578Z,7.13
2019-01-05T17:36:57.731Z,7.10
2019-01-05T17:39:27.845Z,7.08
2019-01-05T17:41:57.929Z,7.10
2019-01-05T17:44:28.149Z,7.04
2019-01-05T17:47:10.503Z,6.99
2019-01-05T17:49:40.653Z,6.96
2019-01-05T17:52:27.070Z,7.00
2019-01-05T17:55:06.045Z,6.98
2019-01-05T17:57:52.534Z,7.00
2019-01-05T18:00:25.394Z,7.03
2019-01-05T18:03:11.366Z,7.02
2019-01-05T18:05:41.480Z,7.01
2019-01-05T18:08:11.553Z,7.00
2019-01-05T18:10:44.611Z,7.04
2019-01-05T18:13:14.785Z,7.06
2019-01-05T18:15:52.392Z,7.08
2019-01-05T18:18:31.497Z,7.14
2019-01-05T18:21:14.073Z,7.07
2019-01-05T18:23:49.362Z,6.99
2019-01-05T18:26:31.853Z,6.96
2019-01-05T18:29:10.757Z,6.97
2019-01-05T18:31:58.682Z,6.95
2019-01-05T18:34:46.542Z,6.94
2019-01-05T18:37:25.371Z,6.90
2019-01-05T18:40:01.159Z,6.88
2019-01-05T18:42:43.403Z,6.85
2019-01-05T18:45:29.505Z,6.90
2019-01-05T18:48:02.329Z,6.94
2019-01-05T18:50:38.591Z,6.92
2019-01-05T18:53:25.020Z,6.95
2019-01-05T18:56:07.095Z,6.95
2019-01-05T18:58:53.424Z,6.96
2019-01-05T19:01:23.527Z,6.98
2019-01-05T19:04:02.631Z,6.99
2019-01-05T19:06:48.569Z,6.98
2019-01-05T19:09:35.046Z,6.96
2019-01-05T19:12:14.421Z,6.96
2019-01-05T19:14:50.256Z,6.97
2019-01-05T19:17:23.221Z,6.97
2019-01-05T19:19:53.360Z,7.01
2019-01-05T19:22:32.431Z,7.00
2019-01-05T19:25:18.468Z,6.97
2019-01-05T19:27:48.565Z,7.03
2019-01-05T19:30:33.423Z,6.97
2019-01-05T19:33:12.271Z,7.00
2019-01-05T19:35:45.682Z,6.96
2019-01-05T19:38:32.222Z,6.95
2019-01-05T19:41:17.367Z,6.97
2019-01-05T19:43:50.413Z,7.03
2019-01-05T19:46:36.983Z,7.00
2019-01-05T19:49:12.894Z,6.99
2019-01-05T19:51:45.886Z,7.01
2019-01-05T19:54:25.398Z,6.97
2019-01-05T19:57:13.040Z,6.98
2019-01-05T19:59:59.088Z,7.00
2019-01-05T20:02:29.137Z,7.05
2019-01-05T20:05:15.231Z,7.08
2019-01-05T20:07:45.309Z,7.09
2019-01-05T20:10:15.481Z,7.09
2019-01-05T20:13:01.545Z,7.07
2019-01-05T20:15:37.495Z,7.08
2019-01-05T20:18:07.585Z,7.10
2019-01-05T20:20:37.691Z,7.06
2019-01-05T20:23:13.347Z,7.04
2019-01-05T20:25:43.455Z,6.99
2019-01-05T20:28:25.484Z,6.93
2019-01-05T20:30:55.680Z,6.99
2019-01-05T20:33:43.916Z,6.92
2019-01-05T20:36:19.696Z,6.87
2019-01-05T20:38:49.765Z,6.84
2019-01-05T20:41:19.863Z,6.90
2019-01-05T20:43:49.937Z,6.94
2019-01-05T20:46:35.441Z,6.90
2019-01-05T20:49:05.639Z,6.82
2019-01-05T20:51:51.874Z,6.84
2019-01-05T20:54:38.053Z,6.90
2019-01-05T20:57:23.237Z,6.85
2019-01-05T21:00:15.125Z,6.85
2019-01-05T21:03:00.343Z,6.88
2019-01-05T21:05:45.764Z,6.88
2019-01-05T21:08:15.919Z,6.88
2019-01-05T21:10:58.427Z,6.84
2019-01-05T21:13:43.688Z,6.87
2019-01-05T21:16:32.167Z,6.89
2019-01-05T21:19:04.680Z,6.85
2019-01-05T21:21:51.192Z,6.89
2019-01-05T21:24:37.580Z,6.87
2019-01-05T21:27:10.414Z,6.78
2019-01-05T21:29:52.754Z,6.73
2019-01-05T21:32:39.199Z,6.70
2019-01-05T21:35:09.436Z,6.66
2019-01-05T21:37:45.758Z,6.67
2019-01-05T21:40:24.932Z,6.69
2019-01-05T21:43:04.066Z,6.76
2019-01-05T21:45:52.378Z,6.83
2019-01-05T21:48:39.068Z,6.86
2019-01-05T21:51:25.087Z,6.84
2019-01-05T21:54:10.628Z,6.86
2019-01-05T21:56:56.845Z,6.81
2019-01-05T21:59:38.875Z,6.83
2019-01-05T22:02:08.923Z,6.83
2019-01-05T22:04:50.736Z,6.82
2019-01-05T22:07:27.102Z,6.83
2019-01-05T22:10:15.308Z,6.79
2019-01-05T22:12:45.375Z,6.86
2019-01-05T22:15:15.596Z,6.84
2019-01-05T22:17:48.369Z,6.82
2019-01-05T22:20:18.477Z,6.82
2019-01-05T22:23:03.633Z,6.75
2019-01-05T22:25:45.861Z,6.69
2019-01-05T22:28:27.857Z,6.67
2019-01-05T22:30:58.008Z,6.65
2019-01-05T22:33:28.140Z,6.68
2019-01-05T22:36:14.463Z,6.73
2019-01-05T22:38:53.584Z,6.76
2019-01-05T22:41:26.453Z,6.75
2019-01-05T22:43:59.335Z,6.73
2019-01-05T22:46:29.472Z,6.75
2019-01-05T22:48:59.686Z,6.78
2019-01-05T22:51:41.682Z,6.72
2019-01-05T22:54:14.189Z,6.73
2019-01-05T22:56:53.427Z,6.75
2019-01-05T22:59:23.583Z,6.75
2019-01-05T23:01:53.679Z,6.76
2019-01-05T23:04:39.200Z,6.78
2019-01-05T23:07:17.934Z,6.76
2019-01-05T23:09:50.868Z,6.73
2019-01-05T23:12:35.966Z,6.71
2019-01-05T23:15:09.452Z,6.70
2019-01-05T23:17:48.870Z,6.70
2019-01-05T23:20:37.479Z,6.67
2019-01-05T23:23:25.778Z,6.71
2019-01-05T23:25:58.832Z,6.70
2019-01-05T23:28:34.436Z,6.76
2019-01-05T23:31:13.385Z,6.73
2019-01-05T23:33:46.179Z,6.71
2019-01-05T23:36:25.131Z,6.65
2019-01-05T23:38:57.991Z,6.61
2019-01-05T23:41:28.059Z,6.61
2019-01-05T23:44:14.360Z,6.61
2019-01-05T23:46:44.408Z,6.59
2019-01-05T23:49:20.415Z,6.58
2019-01-05T23:51:59.644Z,6.60
2019-01-05T23:54:29.737Z,6.68
2019-01-05T23:56:59.873Z,6.70
2019-01-05T23:59:46.195Z,6.70
